Time;durP1;ratioP1;P1;durP2;ratioP2;P2;SDS_P1;SDS_P2;PMS_P1;PMS_P2;Temp;Humidity;BMP_temperature;BMP_pressure;BME280_temperature;BME280_humidity;BME280_pressure;Samples;Min_cycle;Max_cycle;Signal;HPM_P1;HPM_P2
2022/11/18 00:01:33;;;;;;;20.33;13.20;;;;;;;6.75;100.00;98433.25;5100741;28;20482;-65
2022/11/18 00:04:01;;;;;;;21.07;14.70;;;;;;;6.76;100.00;98439.38;5099388;28;20523;-65
2022/11/18 00:06:29;;;;;;;21.27;13.50;;;;;;;6.76;100.00;98442.03;5080261;28;20514;-64
2022/11/18 00:08:56;;;;;;;19.97;13.97;;;;;;;6.73;100.00;98442.34;5080143;28;20456;-64
2022/11/18 00:14:19;;;;;;;22.57;13.93;;;;;;;6.70;100.00;98440.88;5093226;28;20466;-64
2022/11/18 00:16:48;;;;;;;18.90;13.53;;;;;;;6.67;100.00;98438.53;5079920;28;20511;-64
2022/11/18 00:19:15;;;;;;;20.63;13.40;;;;;;;6.63;100.00;98433.69;5096035;28;20475;-64
2022/11/18 00:21:42;;;;;;;22.20;14.80;;;;;;;6.58;100.00;98440.31;5100342;28;20479;-65
2022/11/18 00:24:08;;;;;;;24.67;15.60;;;;;;;6.56;100.00;98447.63;5092663;28;21072;-64
2022/11/18 00:26:36;;;;;;;24.67;16.83;;;;;;;6.53;100.00;98450.56;5079439;28;20912;-65
2022/11/18 00:29:03;;;;;;;24.70;15.17;;;;;;;6.50;100.00;98442.94;5080939;28;20456;-65
2022/11/18 00:31:29;;;;;;;21.30;15.13;;;;;;;6.46;100.00;98440.75;5088953;28;20914;-65
2022/11/18 00:33:57;;;;;;;20.60;15.13;;;;;;;6.38;100.00;98446.84;5096492;28;20456;-65
2022/11/18 00:36:24;;;;;;;23.10;15.57;;;;;;;6.29;100.00;98453.94;5080294;28;21054;-65
2022/11/18 00:38:50;;;;;;;22.67;13.83;;;;;;;6.22;100.00;98455.56;5099507;28;20515;-65
2022/11/18 00:41:17;;;;;;;19.90;13.10;;;;;;;6.20;100.00;98455.72;5093891;28;20559;-65
2022/11/18 00:43:43;;;;;;;21.03;14.30;;;;;;;6.17;100.00;98465.81;5083292;28;20428;-65
2022/11/18 00:46:13;;;;;;;22.07;14.80;;;;;;;6.19;100.00;98462.00;5082538;28;20534;-65
2022/11/18 00:48:40;;;;;;;18.70;13.00;;;;;;;6.19;100.00;98466.47;5085104;28;20281;-65
2022/11/18 00:51:10;;;;;;;19.63;14.00;;;;;;;6.16;100.00;98472.09;5102026;28;20509;-65
2022/11/18 00:53:37;;;;;;;20.33;13.40;;;;;;;6.14;100.00;98469.59;5099728;28;20998;-65
2022/11/18 00:56:04;;;;;;;25.73;15.07;;;;;;;6.17;100.00;98473.78;5088664;28;20566;-65
2022/11/18 00:58:30;;;;;;;20.63;13.90;;;;;;;6.15;100.00;98476.56;5104388;28;20451;-65
2022/11/18 01:00:57;;;;;;;25.43;14.13;;;;;;;6.15;100.00;98476.56;5104287;28;20546;-65
2022/11/18 01:03:24;;;;;;;22.53;13.80;;;;;;;6.21;100.00;98480.41;5103116;28;20466;-65
2022/11/18 01:05:51;;;;;;;23.83;15.00;;;;;;;6.21;100.00;98480.41;5083324;28;20486;-67
2022/11/18 01:08:20;;;;;;;24.00;14.50;;;;;;;6.30;100.00;98471.53;5082922;28;20432;-66
2022/11/18 01:10:48;;;;;;;24.20;14.63;;;;;;;6.38;100.00;98474.22;5063198;28;20501;-66
2022/11/18 01:13:18;;;;;;;25.03;14.87;;;;;;;6.42;100.00;98472.06;5064028;28;20886;-67
2022/11/18 01:15:47;;;;;;;26.90;15.03;;;;;;;6.46;100.00;98484.06;5102067;28;20701;-66
2022/11/18 01:18:14;;;;;;;29.10;16.57;;;;;;;6.52;100.00;98477.28;5102359;28;20455;-66
2022/11/18 01:20:41;;;;;;;26.93;16.13;;;;;;;6.61;100.00;98489.59;5103397;28;20467;-65
2022/11/18 01:23:07;;;;;;;21.87;14.27;;;;;;;6.69;100.00;98492.31;5091805;28;20519;-67
2022/11/18 01:25:37;;;;;;;25.83;15.10;;;;;;;6.70;100.00;98499.28;5099050;28;20514;-65
2022/11/18 01:28:03;;;;;;;22.97;15.40;;;;;;;6.74;100.00;98511.25;5103073;28;20467;-65
2022/11/18 01:30:33;;;;;;;24.00;15.33;;;;;;;6.76;100.00;98511.91;5103230;28;20467;-65
2022/11/18 01:33:00;;;;;;;28.00;16.00;;;;;;;6.83;100.00;98520.09;5102886;28;20571;-66
2022/11/18 01:35:26;;;;;;;27.13;16.97;;;;;;;6.91;100.00;98516.63;5104000;28;20482;-65
2022/11/18 01:37:53;;;;;;;25.30;16.60;;;;;;;6.91;100.00;98517.47;5094690;28;21004;-65
2022/11/18 01:40:20;;;;;;;20.27;14.00;;;;;;;6.93;100.00;98522.63;5089569;28;20482;-65
2022/11/18 01:42:48;;;;;;;23.00;14.20;;;;;;;6.89;100.00;98515.94;5087422;28;20464;-65
2022/11/18 01:45:31;;;;;;;23.23;16.10;;;;;;;6.91;100.00;98524.59;5088294;28;20474;-65
2022/11/18 01:48:02;;;;;;;23.60;14.73;;;;;;;6.89;100.00;98519.47;5100771;28;20520;-66
2022/11/18 01:50:29;;;;;;;20.90;15.83;;;;;;;6.88;100.00;98525.75;5099750;28;20470;-65
2022/11/18 01:53:00;;;;;;;27.90;16.90;;;;;;;6.86;100.00;98527.75;5083008;28;20566;-66
2022/11/18 01:55:29;;;;;;;21.27;13.20;;;;;;;6.82;100.00;98526.38;5083113;28;20484;-65
2022/11/18 01:58:02;;;;;;;21.43;13.30;;;;;;;6.74;100.00;98524.53;5088245;28;20456;-66
2022/11/18 02:00:29;;;;;;;16.93;12.57;;;;;;;6.67;100.00;98535.94;5062580;28;20467;-65
2022/11/18 02:02:56;;;;;;;17.97;11.97;;;;;;;6.62;100.00;98536.41;5085970;28;20539;-65
2022/11/18 02:05:23;;;;;;;19.03;14.13;;;;;;;6.64;100.00;98538.91;5103198;28;20459;-65
2022/11/18 02:07:51;;;;;;;16.00;12.60;;;;;;;6.67;100.00;98528.81;5100817;28;20532;-66
2022/11/18 02:10:21;;;;;;;20.10;12.73;;;;;;;6.67;100.00;98535.94;5103325;28;20534;-66
2022/11/18 02:12:48;;;;;;;17.87;11.10;;;;;;;6.65;100.00;98541.41;5083380;28;20472;-65
2022/11/18 02:15:17;;;;;;;17.83;12.33;;;;;;;6.66;100.00;98543.06;5082352;28;20456;-66
2022/11/18 02:17:48;;;;;;;22.60;13.17;;;;;;;6.60;100.00;98541.88;5083401;28;20965;-66
2022/11/18 02:20:27;;;;;;;23.70;14.77;;;;;;;6.60;100.00;98544.53;5100317;28;20479;-66
2022/11/18 02:23:10;;;;;;;19.03;14.30;;;;;;;6.66;100.00;98548.38;5062333;28;20516;-66
2022/11/18 02:25:47;;;;;;;23.33;14.97;;;;;;;6.70;100.00;98540.94;5069031;28;20561;-66
2022/11/18 02:28:36;;;;;;;18.23;13.80;;;;;;;6.68;100.00;98542.91;5102630;28;21017;-66
2022/11/18 02:31:07;;;;;;;22.07;14.50;;;;;;;6.59;100.00;98545.50;5094247;28;20685;-66
2022/11/18 02:33:38;;;;;;;18.53;13.60;;;;;;;6.58;100.00;98541.22;5082407;28;20503;-66
2022/11/18 02:36:09;;;;;;;16.70;11.90;;;;;;;6.53;100.00;98543.50;5082498;28;21162;-66
2022/11/18 02:38:41;;;;;;;18.43;13.20;;;;;;;6.56;100.00;98550.31;5081344;28;20532;-66
2022/11/18 02:41:09;;;;;;;18.90;12.87;;;;;;;6.59;100.00;98550.00;5086808;28;20555;-65
2022/11/18 02:43:40;;;;;;;18.93;12.03;;;;;;;6.58;100.00;98551.00;5102810;28;20963;-66
2022/11/18 02:46:10;;;;;;;25.90;15.37;;;;;;;6.63;100.00;98558.47;5096339;28;20499;-67
2022/11/18 02:48:40;;;;;;;25.83;13.40;;;;;;;6.63;100.00;98559.34;5080967;28;20929;-67
2022/11/18 02:51:08;;;;;;;18.33;13.67;;;;;;;6.65;100.00;98562.66;5081914;28;20514;-66
2022/11/18 02:53:36;;;;;;;21.97;14.00;;;;;;;6.65;100.00;98559.16;5081252;28;20488;-65
2022/11/18 02:56:03;;;;;;;21.80;13.80;;;;;;;6.60;100.00;98570.25;5086393;28;20498;-65
2022/11/18 02:58:30;;;;;;;22.00;15.80;;;;;;;6.59;100.00;98568.59;5093753;28;20448;-65
2022/11/18 03:00:58;;;;;;;27.10;15.90;;;;;;;6.39;100.00;98574.09;5084998;28;20771;-65
2022/11/18 03:03:28;;;;;;;27.93;16.93;;;;;;;6.41;100.00;98574.78;5101099;28;20463;-65
2022/11/18 03:06:05;;;;;;;23.77;15.17;;;;;;;6.57;100.00;98570.56;5080974;28;20500;-65
2022/11/18 03:08:35;;;;;;;29.30;16.90;;;;;;;6.66;100.00;98569.63;5087122;28;20482;-65
2022/11/18 03:11:10;;;;;;;26.03;16.30;;;;;;;6.72;100.00;98570.84;5060788;28;20530;-65
2022/11/18 03:13:43;;;;;;;27.40;17.00;;;;;;;6.70;100.00;98578.97;5063557;28;20471;-65
2022/11/18 03:16:13;;;;;;;25.57;17.37;;;;;;;6.78;100.00;98581.63;5101059;28;20577;-65
2022/11/18 03:18:46;;;;;;;29.40;16.57;;;;;;;6.81;100.00;98585.81;5101366;28;20498;-65
2022/11/18 03:21:16;;;;;;;34.87;16.73;;;;;;;6.82;100.00;98590.13;5101180;28;20559;-65
2022/11/18 03:23:45;;;;;;;25.13;15.43;;;;;;;6.86;100.00;98595.97;5092859;28;20491;-65
2022/11/18 03:26:16;;;;;;;25.50;16.53;;;;;;;6.87;100.00;98595.78;5080734;28;20551;-66
2022/11/18 03:28:46;;;;;;;32.80;18.07;;;;;;;6.74;100.00;98588.28;5080912;28;20459;-65
2022/11/18 03:31:23;;;;;;;25.47;16.80;;;;;;;6.82;100.00;98584.00;5080682;28;20476;-65
2022/11/18 03:33:54;;;;;;;23.30;15.53;;;;;;;6.86;100.00;98593.31;5101259;28;20503;-65
2022/11/18 03:36:23;;;;;;;26.27;17.03;;;;;;;6.85;100.00;98594.31;5098922;28;21182;-65
2022/11/18 03:38:53;;;;;;;31.67;18.57;;;;;;;6.86;100.00;98595.97;5099878;28;20474;-65
2022/11/18 03:41:20;;;;;;;23.83;15.80;;;;;;;6.89;100.00;98596.50;5100941;28;20471;-65
2022/11/18 03:43:50;;;;;;;25.00;16.70;;;;;;;6.89;100.00;98595.66;5099308;28;20476;-65
2022/11/18 03:46:19;;;;;;;29.73;18.13;;;;;;;6.83;100.00;98599.78;5079972;28;20507;-65
2022/11/18 03:48:48;;;;;;;28.03;17.60;;;;;;;6.92;100.00;98603.31;5088004;28;20507;-65
2022/11/18 03:51:18;;;;;;;22.30;15.33;;;;;;;7.02;100.00;98609.34;5101012;28;21141;-65
2022/11/18 03:53:49;;;;;;;23.67;15.17;;;;;;;6.99;100.00;98607.00;5099580;28;20517;-65
2022/11/18 03:56:19;;;;;;;26.30;17.70;;;;;;;6.98;100.00;98611.47;5080910;28;20539;-65
2022/11/18 03:58:52;;;;;;;26.33;16.47;;;;;;;7.00;100.00;98606.00;5088606;28;20455;-65
2022/11/18 04:01:21;;;;;;;29.47;17.03;;;;;;;7.06;100.00;98613.34;5100903;28;20467;-65
2022/11/18 04:03:48;;;;;;;29.80;16.53;;;;;;;7.08;100.00;98614.03;5100338;28;20451;-66
2022/11/18 04:06:24;;;;;;;31.23;18.87;;;;;;;7.08;100.00;98614.03;5099112;28;20498;-67
2022/11/18 04:08:55;;;;;;;21.17;14.40;;;;;;;7.13;100.00;98613.53;5091426;28;20487;-68
2022/11/18 04:14:09;;;;;;;25.43;16.17;;;;;;;7.22;100.00;98625.91;5098763;28;21173;-66
2022/11/18 04:16:39;;;;;;;28.33;17.07;;;;;;;7.04;100.00;98625.94;5079639;28;20503;-66
2022/11/18 04:19:06;;;;;;;24.53;17.47;;;;;;;6.99;100.00;98622.94;5090151;28;20484;-66
2022/11/18 04:21:34;;;;;;;27.90;17.10;;;;;;;6.97;100.00;98627.56;5092669;28;20536;-66
2022/11/18 04:24:01;;;;;;;24.77;16.13;;;;;;;7.00;100.00;98632.59;5100329;28;20471;-66
2022/11/18 04:26:27;;;;;;;22.50;15.40;;;;;;;6.97;100.00;98632.88;5062729;28;20572;-66
2022/11/18 04:28:54;;;;;;;22.87;16.50;;;;;;;6.97;100.00;98636.38;5064967;28;20479;-66
2022/11/18 04:31:21;;;;;;;24.30;16.53;;;;;;;6.97;100.00;98627.56;5103308;28;20505;-65
2022/11/18 04:33:47;;;;;;;24.50;16.70;;;;;;;6.87;100.00;98632.16;5088438;28;20563;-65
2022/11/18 04:36:14;;;;;;;26.57;17.50;;;;;;;6.91;100.00;98636.16;5083835;28;20529;-65
2022/11/18 04:38:42;;;;;;;27.60;16.90;;;;;;;7.04;100.00;98641.91;5098913;28;21050;-65
2022/11/18 04:41:08;;;;;;;24.13;16.53;;;;;;;7.09;100.00;98644.09;5088546;28;20492;-65
2022/11/18 04:43:35;;;;;;;22.67;15.93;;;;;;;7.19;100.00;98644.81;5091129;28;20479;-66
2022/11/18 04:46:02;;;;;;;21.70;15.80;;;;;;;7.18;100.00;98655.59;5096816;28;20503;-66
2022/11/18 04:48:28;;;;;;;26.77;17.07;;;;;;;7.15;100.00;98652.28;5098426;28;20482;-66
2022/11/18 04:50:56;;;;;;;26.10;16.53;;;;;;;7.21;100.00;98652.63;5103219;28;20490;-65
2022/11/18 04:53:26;;;;;;;24.13;16.50;;;;;;;7.17;100.00;98652.13;5103998;28;20511;-66
2022/11/18 04:55:54;;;;;;;32.03;18.23;;;;;;;7.18;100.00;98659.09;5103485;28;20487;-65
2022/11/18 04:58:20;;;;;;;29.60;17.37;;;;;;;7.24;100.00;98662.91;5103898;28;20534;-65
2022/11/18 05:00:47;;;;;;;29.40;17.00;;;;;;;7.29;100.00;98663.28;5102904;28;20875;-65
2022/11/18 05:03:15;;;;;;;24.60;17.03;;;;;;;7.25;100.00;98659.28;5104483;28;20428;-66
2022/11/18 05:05:41;;;;;;;27.23;16.20;;;;;;;7.27;100.00;98665.28;5102897;28;20455;-65
2022/11/18 05:08:08;;;;;;;34.83;16.77;;;;;;;7.11;100.00;98669.50;5102636;28;20523;-65
2022/11/18 05:10:35;;;;;;;27.10;15.73;;;;;;;7.11;100.00;98677.47;5095416;28;20463;-65
2022/11/18 05:13:02;;;;;;;26.40;17.00;;;;;;;7.23;100.00;98683.38;5091578;28;20515;-65
2022/11/18 05:15:28;;;;;;;26.73;16.23;;;;;;;7.21;100.00;98687.19;5087748;28;20555;-66
2022/11/18 05:17:55;;;;;;;22.50;15.90;;;;;;;7.31;100.00;98693.22;5087011;28;20483;-65
2022/11/18 05:20:21;;;;;;;26.37;15.87;;;;;;;7.28;100.00;98690.88;5083437;28;20506;-65
2022/11/18 05:22:48;;;;;;;27.70;15.83;;;;;;;7.37;100.00;98695.22;5090802;28;21016;-66
2022/11/18 05:25:15;;;;;;;32.57;16.10;;;;;;;7.30;100.00;98691.53;5095410;28;20512;-66
2022/11/18 05:27:41;;;;;;;30.90;16.57;;;;;;;7.40;100.00;98699.41;5082408;28;20512;-65
2022/11/18 05:30:11;;;;;;;30.13;18.17;;;;;;;7.41;100.00;98699.22;5090939;28;20506;-65
2022/11/18 05:32:40;;;;;;;29.17;16.60;;;;;;;7.45;100.00;98703.25;5085008;28;20562;-66
2022/11/18 05:35:07;;;;;;;34.83;17.23;;;;;;;7.53;100.00;98707.78;5090526;28;20456;-66
2022/11/18 05:37:34;;;;;;;28.20;17.13;;;;;;;7.52;100.00;98704.28;5077308;28;20494;-66
2022/11/18 05:40:00;;;;;;;29.03;16.30;;;;;;;7.50;100.00;98706.28;5082505;28;20496;-66
2022/11/18 05:45:14;;;;;;;26.63;16.00;;;;;;;7.45;100.00;98703.25;5082137;28;20447;-65
2022/11/18 05:50:21;;;;;;;25.40;17.30;;;;;;;7.42;100.00;98708.88;5100717;28;21101;-65
2022/11/18 05:52:48;;;;;;;31.10;16.90;;;;;;;7.39;100.00;98711.84;5080640;28;20475;-66
2022/11/18 05:55:16;;;;;;;30.20;17.33;;;;;;;7.45;100.00;98707.75;5090002;28;20444;-65
2022/11/18 05:57:42;;;;;;;28.20;18.57;;;;;;;7.33;100.00;98715.16;5101686;28;20617;-65
2022/11/18 06:00:11;;;;;;;27.07;17.47;;;;;;;7.26;100.00;98714.94;5093876;28;20452;-66
2022/11/18 06:02:41;;;;;;;26.17;17.30;;;;;;;7.42;100.00;98729.34;5102323;28;20484;-66
2022/11/18 06:05:08;;;;;;;27.40;17.03;;;;;;;7.45;100.00;98719.22;5082860;28;20477;-65
2022/11/18 06:07:37;;;;;;;29.50;18.30;;;;;;;7.39;100.00;98719.00;5066120;28;20484;-66
2022/11/18 06:10:05;;;;;;;29.67;18.70;;;;;;;7.42;100.00;98724.00;5070168;28;20460;-65
2022/11/18 06:12:34;;;;;;;27.63;17.47;;;;;;;7.44;100.00;98732.66;5083210;28;20478;-66
2022/11/18 06:15:04;;;;;;;30.23;17.50;;;;;;;7.50;100.00;98732.03;5093849;28;20596;-65
2022/11/18 06:17:34;;;;;;;28.47;17.63;;;;;;;7.48;100.00;98739.31;5094971;28;20471;-65
2022/11/18 06:20:02;;;;;;;29.27;19.00;;;;;;;7.36;100.00;98744.09;5082416;28;20487;-65
2022/11/18 06:22:29;;;;;;;28.50;17.80;;;;;;;7.42;100.00;98746.13;5082110;28;20476;-65
2022/11/18 06:24:56;;;;;;;28.47;19.13;;;;;;;7.33;100.00;98747.88;5085667;28;20453;-63
2022/11/18 06:27:22;;;;;;;32.57;17.73;;;;;;;7.38;100.00;98746.56;5060952;28;20517;-63
2022/11/18 06:29:49;;;;;;;23.53;16.10;;;;;;;7.34;100.00;98743.41;5080604;28;20488;-63
2022/11/18 06:32:16;;;;;;;25.63;17.17;;;;;;;7.38;100.00;98749.22;5089195;28;20507;-63
2022/11/18 06:34:42;;;;;;;25.23;16.40;;;;;;;7.38;100.00;98752.75;5073967;28;20508;-63
2022/11/18 06:37:14;;;;;;;23.43;16.00;;;;;;;7.31;100.00;98763.16;5086055;28;20566;-63
2022/11/18 06:39:40;;;;;;;30.83;17.63;;;;;;;7.37;100.00;98769.69;5087227;28;20470;-63
2022/11/18 06:42:12;;;;;;;33.70;17.17;;;;;;;7.38;100.00;98776.69;5087005;28;20495;-63
2022/11/18 06:44:54;;;;;;;25.83;15.97;;;;;;;7.47;100.00;98782.88;5091522;28;20843;-64
2022/11/18 06:47:20;;;;;;;25.10;16.63;;;;;;;7.38;100.00;98784.66;5081932;28;20552;-63
2022/11/18 06:49:47;;;;;;;30.13;18.37;;;;;;;7.37;100.00;98782.97;5079829;28;20206;-64
2022/11/18 06:52:15;;;;;;;27.50;15.80;;;;;;;7.49;100.00;98792.34;5087947;28;20500;-64
2022/11/18 06:54:41;;;;;;;30.27;16.77;;;;;;;7.39;100.00;98793.44;5081179;28;20515;-63
2022/11/18 06:57:08;;;;;;;29.97;17.83;;;;;;;7.49;100.00;98804.81;5080369;28;20591;-64
2022/11/18 06:59:35;;;;;;;29.93;15.70;;;;;;;7.45;100.00;98809.63;5079955;28;20928;-63
2022/11/18 07:02:02;;;;;;;28.53;16.87;;;;;;;7.47;100.00;98817.44;5080055;28;20563;-63
2022/11/18 07:04:29;;;;;;;26.00;17.47;;;;;;;7.54;100.00;98811.34;5079771;28;20433;-63
2022/11/18 07:06:55;;;;;;;25.40;17.20;;;;;;;7.56;100.00;98819.16;5081805;28;20504;-64
2022/11/18 07:09:23;;;;;;;27.37;17.00;;;;;;;7.58;100.00;98825.16;5079769;28;20463;-64
2022/11/18 07:11:50;;;;;;;30.83;17.93;;;;;;;7.58;100.00;98835.78;5079939;28;20502;-64
2022/11/18 07:14:17;;;;;;;27.60;17.87;;;;;;;7.60;100.00;98835.63;5084015;28;20490;-68
2022/11/18 07:16:44;;;;;;;25.73;17.43;;;;;;;7.62;100.00;98837.16;5085717;28;20472;-63
2022/11/18 07:19:13;;;;;;;24.93;16.80;;;;;;;7.62;100.00;98836.31;5083067;28;20480;-66
2022/11/18 07:21:40;;;;;;;30.10;17.20;;;;;;;7.61;100.00;98845.28;5097269;28;20510;-63
2022/11/18 07:24:07;;;;;;;29.67;16.30;;;;;;;7.56;100.00;98852.91;5085278;28;20491;-63
2022/11/18 07:26:36;;;;;;;28.23;16.20;;;;;;;7.59;100.00;98847.28;5099594;28;20494;-63
2022/11/18 07:29:03;;;;;;;27.50;16.57;;;;;;;7.68;100.00;98844.50;5095826;28;20452;-63
2022/11/18 07:31:30;;;;;;;31.33;16.60;;;;;;;7.68;100.00;98843.69;5078497;28;20546;-64
2022/11/18 07:33:57;;;;;;;25.80;16.17;;;;;;;7.66;100.00;98849.16;5077901;28;20488;-63
2022/11/18 07:36:25;;;;;;;36.07;17.83;;;;;;;7.57;100.00;98862.53;5079947;28;21007;-64
2022/11/18 07:38:53;;;;;;;28.80;15.90;;;;;;;7.52;100.00;98857.69;5093256;28;20532;-63
2022/11/18 07:41:21;;;;;;;28.63;15.93;;;;;;;7.49;100.00;98861.50;5082216;28;20495;-63
2022/11/18 07:43:50;;;;;;;26.63;15.87;;;;;;;7.60;100.00;98867.56;5080443;28;20798;-63
2022/11/18 07:46:18;;;;;;;26.07;16.40;;;;;;;7.54;100.00;98864.53;5092259;28;20476;-63
2022/11/18 07:48:46;;;;;;;25.07;15.30;;;;;;;7.58;100.00;98861.56;5062806;28;20462;-64
2022/11/18 07:51:14;;;;;;;22.87;14.83;;;;;;;7.53;100.00;98870.00;5078119;28;20899;-63
2022/11/18 07:53:42;;;;;;;20.10;14.30;;;;;;;7.48;100.00;98864.31;5081513;28;20488;-63
2022/11/18 07:56:09;;;;;;;22.43;13.43;;;;;;;7.55;100.00;98868.00;5074490;28;20473;-63
2022/11/18 07:58:36;;;;;;;27.77;15.10;;;;;;;7.58;100.00;98870.38;5079602;28;20496;-64
2022/11/18 08:01:09;;;;;;;23.40;15.07;;;;;;;7.49;100.00;98871.31;5079769;28;20525;-63
2022/11/18 08:03:37;;;;;;;18.97;12.80;;;;;;;7.55;100.00;98868.00;5077818;28;20644;-64
2022/11/18 08:06:04;;;;;;;19.57;12.93;;;;;;;7.63;100.00;98877.88;5079538;28;20498;-64
2022/11/18 08:08:31;;;;;;;20.70;12.93;;;;;;;7.44;100.00;98873.59;5068033;28;20985;-64
2022/11/18 08:10:59;;;;;;;25.30;13.70;;;;;;;7.43;100.00;98879.88;5071562;28;20485;-64
2022/11/18 08:13:26;;;;;;;21.30;12.83;;;;;;;7.41;100.00;98887.19;5077916;28;20480;-63
2022/11/18 08:15:54;;;;;;;24.00;16.17;;;;;;;7.30;100.00;98889.09;5068212;28;20502;-63
2022/11/18 08:18:23;;;;;;;20.50;12.87;;;;;;;7.34;100.00;98887.81;5073779;28;20520;-63
2022/11/18 08:20:49;;;;;;;23.03;13.20;;;;;;;7.37;100.00;98889.31;5059239;28;20608;-63
2022/11/18 08:23:16;;;;;;;24.23;13.53;;;;;;;7.41;100.00;98889.84;5064129;28;20709;-64
2022/11/18 08:25:44;;;;;;;26.60;15.20;;;;;;;7.39;100.00;98892.66;5078429;28;20487;-63
2022/11/18 08:28:12;;;;;;;26.17;13.00;;;;;;;7.37;100.00;98897.28;5072212;28;20479;-63
2022/11/18 08:30:39;;;;;;;23.33;14.17;;;;;;;7.38;100.00;98895.47;5078491;28;20533;-63
2022/11/18 08:33:05;;;;;;;25.03;13.83;;;;;;;7.30;100.00;98897.06;5071563;28;20437;-63
2022/11/18 08:35:34;;;;;;;18.50;12.70;;;;;;;7.16;100.00;98895.78;5062062;28;20497;-65
2022/11/18 08:38:00;;;;;;;25.03;12.67;;;;;;;7.33;100.00;98898.59;5079262;28;20464;-63
2022/11/18 08:40:27;;;;;;;20.53;13.57;;;;;;;7.14;100.00;98907.56;5087693;28;20988;-63
2022/11/18 08:42:54;;;;;;;23.97;16.03;;;;;;;7.20;100.00;98898.97;5086944;28;20445;-63
2022/11/18 08:45:21;;;;;;;21.20;13.60;;;;;;;7.15;100.00;98907.41;5078987;28;20444;-63
2022/11/18 08:47:48;;;;;;;21.90;13.33;;;;;;;7.33;100.00;98912.72;5083368;28;20452;-63
2022/11/18 08:50:14;;;;;;;20.70;13.70;;;;;;;7.41;100.00;98909.28;5074739;28;20453;-63
2022/11/18 08:52:43;;;;;;;25.80;13.27;;;;;;;7.58;100.00;98918.25;5076838;28;20479;-63
2022/11/18 08:55:09;;;;;;;23.27;13.10;;;;;;;7.46;100.00;98928.28;5078252;28;20510;-62
2022/11/18 08:57:36;;;;;;;21.83;13.07;;;;;;;7.27;100.00;98931.94;5089347;28;20478;-64
2022/11/18 09:00:04;;;;;;;24.60;15.10;;;;;;;7.20;100.00;98930.03;5097419;28;20508;-64
2022/11/18 09:02:31;;;;;;;22.23;13.23;;;;;;;7.32;100.00;98927.00;5074031;28;20484;-64
2022/11/18 09:04:59;;;;;;;23.37;13.10;;;;;;;7.21;100.00;98929.06;5080692;28;20505;-63
2022/11/18 09:07:25;;;;;;;18.00;11.70;;;;;;;7.38;100.00;98930.03;5080201;28;20472;-64
2022/11/18 09:09:53;;;;;;;20.50;13.30;;;;;;;7.43;100.00;98943.69;5096440;28;20476;-64
2022/11/18 09:12:20;;;;;;;20.10;12.97;;;;;;;7.25;100.00;98936.56;5074559;28;20525;-63
2022/11/18 09:14:47;;;;;;;19.03;12.23;;;;;;;7.15;100.00;98943.78;5079822;28;20484;-64
2022/11/18 09:17:14;;;;;;;19.30;13.37;;;;;;;7.27;100.00;98942.56;5081762;28;20543;-63
2022/11/18 09:19:41;;;;;;;21.37;13.70;;;;;;;7.33;100.00;98949.94;5082568;28;20452;-63
2022/11/18 09:22:08;;;;;;;24.87;13.67;;;;;;;7.33;100.00;98955.25;5082012;28;20476;-63
2022/11/18 09:24:35;;;;;;;26.30;15.27;;;;;;;7.29;100.00;98961.03;5079783;28;20441;-63
2022/11/18 09:27:05;;;;;;;23.00;15.23;;;;;;;7.19;100.00;98962.91;5082136;28;20476;-63
2022/11/18 09:29:32;;;;;;;21.50;14.93;;;;;;;7.33;100.00;98965.06;5084066;28;20513;-63
2022/11/18 09:32:00;;;;;;;22.40;15.40;;;;;;;7.25;100.00;98978.28;5070955;28;20505;-63
2022/11/18 09:34:27;;;;;;;23.03;15.40;;;;;;;7.19;100.00;98971.75;5093913;28;20639;-63
2022/11/18 09:36:55;;;;;;;27.97;15.93;;;;;;;7.12;100.00;98979.47;5102646;28;20471;-63
2022/11/18 09:39:22;;;;;;;21.80;14.10;;;;;;;6.90;100.00;98975.41;5101334;28;20463;-63
2022/11/18 09:41:50;;;;;;;26.20;14.90;;;;;;;6.98;100.00;98975.50;5092136;28;20472;-64
2022/11/18 09:44:30;;;;;;;35.30;16.23;;;;;;;7.05;100.00;98982.88;5081048;28;20437;-63
2022/11/18 09:47:04;;;;;;;25.03;17.20;;;;;;;6.98;100.00;98987.97;5079793;28;20468;-63
2022/11/18 09:49:33;;;;;;;27.43;16.00;;;;;;;7.13;100.00;98983.81;5087953;28;20478;-63
2022/11/18 09:52:03;;;;;;;25.70;16.27;;;;;;;7.14;100.00;98982.81;5101760;28;20919;-63
2022/11/18 09:54:31;;;;;;;24.67;15.37;;;;;;;6.99;100.00;98992.28;5087020;28;20518;-64
2022/11/18 09:56:58;;;;;;;23.83;15.07;;;;;;;7.05;100.00;98988.19;5082993;28;20480;-64
2022/11/18 09:59:28;;;;;;;27.17;15.80;;;;;;;7.04;100.00;98991.84;5084432;28;20483;-63
2022/11/18 10:02:01;;;;;;;25.37;14.10;;;;;;;7.05;100.00;98998.81;5101901;28;20472;-64
2022/11/18 10:04:30;;;;;;;23.50;15.97;;;;;;;6.65;100.00;99002.63;5092822;28;20475;-63
2022/11/18 10:06:59;;;;;;;21.77;15.70;;;;;;;7.03;100.00;98995.47;5082217;28;20473;-63
2022/11/18 10:09:30;;;;;;;30.73;16.57;;;;;;;7.00;100.00;99006.41;5098591;28;20451;-63
2022/11/18 10:12:13;;;;;;;25.90;16.27;;;;;;;6.75;100.00;99014.06;5091814;28;20495;-63
2022/11/18 10:15:04;;;;;;;28.57;15.80;;;;;;;6.74;100.00;99021.22;5102997;28;20487;-63
2022/11/18 10:17:40;;;;;;;22.90;14.80;;;;;;;6.62;100.00;99019.72;5095984;28;20962;-64
2022/11/18 10:20:20;;;;;;;25.77;15.87;;;;;;;6.72;100.00;99025.00;5098023;28;20465;-63
2022/11/18 10:22:51;;;;;;;25.37;15.60;;;;;;;6.70;100.00;99026.94;5089524;28;20446;-63
2022/11/18 10:25:18;;;;;;;25.50;15.50;;;;;;;6.56;100.00;99029.13;5100222;28;20512;-63
2022/11/18 10:27:47;;;;;;;25.37;14.53;;;;;;;6.61;100.00;99031.31;5082041;28;20467;-63
2022/11/18 10:30:17;;;;;;;22.40;14.93;;;;;;;6.56;100.00;99028.25;5097889;28;20510;-63
2022/11/18 10:32:57;;;;;;;24.43;16.37;;;;;;;6.51;100.00;99034.03;5082963;28;20443;-63
2022/11/18 10:35:27;;;;;;;25.70;14.87;;;;;;;6.46;100.00;99035.41;5089868;28;20504;-63
2022/11/18 10:38:01;;;;;;;27.97;16.67;;;;;;;6.62;100.00;99034.81;5081246;28;20482;-63
2022/11/18 10:40:31;;;;;;;27.07;15.97;;;;;;;6.56;100.00;99039.72;5080010;28;20504;-64
2022/11/18 10:42:58;;;;;;;21.73;14.87;;;;;;;6.44;100.00;99042.69;5082131;28;20447;-63
2022/11/18 10:45:28;;;;;;;26.57;16.50;;;;;;;6.59;100.00;99052.69;5080965;28;20497;-63
2022/11/18 10:48:00;;;;;;;25.37;16.40;;;;;;;6.50;100.00;99042.13;5080571;28;20440;-63
2022/11/18 10:50:32;;;;;;;26.10;17.07;;;;;;;6.45;100.00;99050.50;5081209;28;20487;-63
2022/11/18 10:53:00;;;;;;;29.93;18.83;;;;;;;6.35;100.00;99055.88;5081693;28;20444;-63
2022/11/18 10:55:27;;;;;;;27.50;15.83;;;;;;;6.26;100.00;99058.53;5080394;28;20476;-63
2022/11/18 10:57:56;;;;;;;26.50;17.23;;;;;;;6.27;100.00;99063.69;5081124;28;20452;-63
2022/11/18 11:00:40;;;;;;;28.03;16.13;;;;;;;6.21;100.00;99065.09;5080050;28;20448;-63
2022/11/18 11:03:23;;;;;;;33.67;17.67;;;;;;;6.15;100.00;99059.53;5082087;28;20440;-62
2022/11/18 11:06:14;;;;;;;26.43;16.57;;;;;;;6.22;100.00;99058.81;5080864;28;21022;-63
2022/11/18 11:08:48;;;;;;;27.77;17.37;;;;;;;6.25;100.00;99060.34;5079465;28;20448;-62
2022/11/18 11:11:24;;;;;;;30.93;18.23;;;;;;;6.28;100.00;99059.22;5080444;28;20512;-63
2022/11/18 11:13:52;;;;;;;27.33;16.37;;;;;;;6.14;100.00;99061.31;5081203;28;20464;-62
2022/11/18 11:16:21;;;;;;;28.30;16.23;;;;;;;6.11;100.00;99061.63;5080008;28;20476;-62
2022/11/18 11:18:52;;;;;;;23.27;14.80;;;;;;;5.88;100.00;99062.84;5080922;28;20499;-63
2022/11/18 11:21:21;;;;;;;22.93;16.20;;;;;;;5.87;100.00;99059.38;5080199;28;20540;-62
2022/11/18 11:23:48;;;;;;;22.97;14.77;;;;;;;5.88;100.00;99068.97;5080191;28;20463;-62
2022/11/18 11:26:20;;;;;;;25.87;16.23;;;;;;;5.82;100.00;99073.03;5080862;28;20479;-62
2022/11/18 11:28:52;;;;;;;27.30;15.90;;;;;;;6.06;100.00;99078.91;5080417;28;20929;-63
2022/11/18 11:31:25;;;;;;;20.57;14.80;;;;;;;6.10;100.00;99080.34;5078973;28;20504;-63
2022/11/18 11:33:56;;;;;;;26.37;16.70;;;;;;;6.08;100.00;99079.66;5080339;28;20471;-62
2022/11/18 11:36:32;;;;;;;25.40;16.43;;;;;;;6.10;100.00;99088.28;5079666;28;20580;-63